Time;durP1;ratioP1;P1;durP2;ratioP2;P2;SDS_P1;SDS_P2;PMS_P1;PMS_P2;Temp;Humidity;BMP_temperature;BMP_pressure;BME280_temperature;BME280_humidity;BME280_pressure;Samples;Min_cycle;Max_cycle;Signal;HPM_P1;HPM_P2
2022/03/29 00:01:31;;;;;;;42.90;22.98;;;;;;;;;;4999863;28;20464;-68
2022/03/29 00:03:57;;;;;;;37.50;23.13;;;;;;;;;;5004526;28;20053;-69
2022/03/29 00:06:23;;;;;;;41.45;22.27;;;;;;;;;;5001244;28;20099;-68
2022/03/29 00:08:49;;;;;;;38.45;21.50;;;;;;;;;;5000731;28;20025;-70
2022/03/29 00:11:17;;;;;;;37.33;21.67;;;;;;;;;;5011838;28;20027;-69
2022/03/29 00:13:43;;;;;;;44.00;22.83;;;;;;;;;;5013164;28;20095;-69
2022/03/29 00:16:09;;;;;;;35.10;21.23;;;;;;;;;;5010730;28;20072;-68
2022/03/29 00:18:35;;;;;;;39.83;21.90;;;;;;;;;;5004678;28;20030;-69
2022/03/29 00:21:01;;;;;;;36.67;20.77;;;;;;;;;;5000521;28;20025;-70
2022/03/29 00:23:27;;;;;;;38.38;21.58;;;;;;;;;;4996486;28;20022;-70
2022/03/29 00:25:53;;;;;;;38.75;22.27;;;;;;;;;;5007034;28;20480;-69
2022/03/29 00:28:19;;;;;;;33.25;19.65;;;;;;;;;;4998411;28;20027;-69
2022/03/29 00:30:46;;;;;;;39.17;21.50;;;;;;;;;;5000560;28;20026;-69
2022/03/29 00:33:12;;;;;;;40.90;21.75;;;;;;;;;;4999882;28;20428;-68
2022/03/29 00:35:38;;;;;;;97.32;25.70;;;;;;;;;;5000931;28;20041;-68
2022/03/29 00:38:04;;;;;;;103.40;24.80;;;;;;;;;;4997402;28;20108;-69
2022/03/29 00:40:31;;;;;;;97.63;25.77;;;;;;;;;;4997560;28;20117;-69
2022/03/29 00:42:57;;;;;;;217.55;33.28;;;;;;;;;;4994711;28;20421;-70
2022/03/29 00:45:23;;;;;;;149.75;25.10;;;;;;;;;;5000674;28;20109;-69
2022/03/29 00:47:50;;;;;;;190.55;29.85;;;;;;;;;;4999699;28;20033;-69
2022/03/29 00:50:16;;;;;;;116.32;24.23;;;;;;;;;;5004059;28;20389;-70
2022/03/29 00:52:42;;;;;;;160.20;28.27;;;;;;;;;;4998060;28;20073;-70
2022/03/29 00:55:12;;;;;;;214.65;30.92;;;;;;;;;;5000505;28;20034;-69
2022/03/29 00:57:38;;;;;;;192.75;28.58;;;;;;;;;;4997118;28;20026;-68
2022/03/29 01:00:04;;;;;;;145.70;25.45;;;;;;;;;;4996906;28;20456;-70
2022/03/29 01:02:30;;;;;;;198.57;28.20;;;;;;;;;;4994963;28;20022;-69
2022/03/29 01:04:57;;;;;;;190.38;28.70;;;;;;;;;;5007359;28;20027;-68
2022/03/29 01:07:24;;;;;;;127.07;25.35;;;;;;;;;;5003487;28;20455;-68
2022/03/29 01:09:50;;;;;;;58.90;21.27;;;;;;;;;;5002447;28;20037;-68
2022/03/29 01:12:16;;;;;;;69.43;20.20;;;;;;;;;;4993173;28;20156;-68
2022/03/29 01:14:42;;;;;;;187.55;27.70;;;;;;;;;;5002916;28;20198;-68
2022/03/29 01:19:53;;;;;;;113.45;23.05;;;;;;;;;;5003092;28;20044;-68
2022/03/29 01:22:21;;;;;;;70.28;19.05;;;;;;;;;;5000987;28;20030;-69
2022/03/29 01:24:47;;;;;;;49.55;19.45;;;;;;;;;;5001110;28;20027;-68
2022/03/29 01:27:13;;;;;;;83.25;21.77;;;;;;;;;;4997741;28;20087;-69
2022/03/29 01:29:40;;;;;;;62.13;19.30;;;;;;;;;;5002471;28;20041;-70
2022/03/29 01:32:08;;;;;;;63.45;19.95;;;;;;;;;;5004929;28;20112;-68
2022/03/29 01:34:41;;;;;;;111.20;24.38;;;;;;;;;;5001037;28;20040;-69
2022/03/29 01:37:07;;;;;;;97.72;22.98;;;;;;;;;;5000501;28;20085;-69
2022/03/29 01:39:34;;;;;;;102.40;22.75;;;;;;;;;;4997793;28;20038;-68
2022/03/29 01:42:01;;;;;;;108.10;22.42;;;;;;;;;;4999964;28;20112;-69
2022/03/29 01:44:27;;;;;;;63.67;21.15;;;;;;;;;;4998831;28;20030;-68
2022/03/29 01:46:53;;;;;;;87.13;22.98;;;;;;;;;;4997322;28;20102;-70
2022/03/29 01:49:20;;;;;;;101.72;23.52;;;;;;;;;;5000423;28;20039;-68
2022/03/29 01:51:46;;;;;;;63.88;20.05;;;;;;;;;;5001742;28;20033;-68
2022/03/29 01:54:12;;;;;;;59.22;19.75;;;;;;;;;;4999984;28;20054;-69
2022/03/29 01:56:38;;;;;;;75.75;22.52;;;;;;;;;;5000065;28;20042;-69
2022/03/29 01:59:06;;;;;;;108.88;24.05;;;;;;;;;;5001780;28;20140;-68
2022/03/29 02:01:38;;;;;;;106.22;23.92;;;;;;;;;;5000812;28;20065;-68
2022/03/29 02:04:04;;;;;;;95.82;23.25;;;;;;;;;;5008418;28;20034;-68
2022/03/29 02:06:30;;;;;;;109.97;23.20;;;;;;;;;;5001839;28;20396;-68
2022/03/29 02:09:00;;;;;;;111.07;25.67;;;;;;;;;;5003543;28;20067;-69
2022/03/29 02:11:26;;;;;;;59.30;21.63;;;;;;;;;;5003540;28;20428;-67
2022/03/29 02:13:56;;;;;;;61.67;22.92;;;;;;;;;;5002804;28;20050;-67
2022/03/29 02:16:22;;;;;;;48.28;20.17;;;;;;;;;;4994651;28;20443;-69
2022/03/29 02:18:48;;;;;;;69.63;21.23;;;;;;;;;;5001046;28;20034;-68
2022/03/29 02:21:15;;;;;;;88.63;22.40;;;;;;;;;;4999289;28;20033;-69
2022/03/29 02:23:41;;;;;;;104.53;24.30;;;;;;;;;;4997478;28;20032;-67
2022/03/29 02:26:07;;;;;;;63.70;22.88;;;;;;;;;;4997822;28;20022;-68
2022/03/29 02:28:33;;;;;;;46.08;20.02;;;;;;;;;;5001307;28;20029;-69
2022/03/29 02:31:00;;;;;;;51.50;20.13;;;;;;;;;;5003117;28;20463;-69
2022/03/29 02:33:26;;;;;;;90.60;22.15;;;;;;;;;;5004083;28;20413;-69
2022/03/29 02:35:52;;;;;;;92.97;23.58;;;;;;;;;;4993521;28;20072;-68
2022/03/29 02:38:20;;;;;;;48.35;21.48;;;;;;;;;;5007428;28;20380;-68
2022/03/29 02:40:46;;;;;;;47.13;20.00;;;;;;;;;;4996076;28;20068;-70
2022/03/29 02:43:12;;;;;;;68.15;22.83;;;;;;;;;;4995377;28;20026;-68
2022/03/29 02:45:39;;;;;;;43.60;20.23;;;;;;;;;;4995202;28;20034;-69
2022/03/29 02:48:05;;;;;;;46.97;20.92;;;;;;;;;;4997975;28;20512;-69
2022/03/29 02:50:31;;;;;;;41.05;19.75;;;;;;;;;;5006046;28;20042;-69
2022/03/29 02:52:59;;;;;;;51.13;20.17;;;;;;;;;;5001003;28;20481;-69
2022/03/29 02:55:29;;;;;;;41.28;20.02;;;;;;;;;;5003237;28;20049;-68
2022/03/29 02:57:56;;;;;;;44.08;22.02;;;;;;;;;;5001507;28;20435;-69
2022/03/29 03:00:22;;;;;;;72.35;22.05;;;;;;;;;;5007854;28;20247;-69
2022/03/29 03:02:49;;;;;;;44.97;19.85;;;;;;;;;;5003902;28;20651;-68
2022/03/29 03:05:16;;;;;;;46.78;21.10;;;;;;;;;;5004997;28;20041;-69
2022/03/29 03:07:42;;;;;;;49.33;21.85;;;;;;;;;;5002296;28;20642;-69
2022/03/29 03:10:09;;;;;;;49.80;21.70;;;;;;;;;;5013185;28;20030;-69
2022/03/29 03:12:36;;;;;;;46.67;21.90;;;;;;;;;;5002193;28;20380;-69
2022/03/29 03:15:03;;;;;;;45.40;20.17;;;;;;;;;;5008356;28;20078;-69
2022/03/29 03:17:29;;;;;;;46.20;22.05;;;;;;;;;;4997965;28;20034;-69
2022/03/29 03:19:55;;;;;;;46.25;21.40;;;;;;;;;;5019677;28;20075;-71
2022/03/29 03:22:21;;;;;;;45.70;20.80;;;;;;;;;;5002439;28;20034;-68
2022/03/29 03:24:47;;;;;;;46.08;20.48;;;;;;;;;;5000889;28;20030;-68
2022/03/29 03:27:13;;;;;;;44.65;21.67;;;;;;;;;;5001868;28;20026;-69
2022/03/29 03:29:40;;;;;;;42.55;19.63;;;;;;;;;;5004030;28;20026;-69
2022/03/29 03:32:06;;;;;;;51.95;20.75;;;;;;;;;;5005023;28;20570;-69
2022/03/29 03:34:32;;;;;;;46.30;20.17;;;;;;;;;;5006500;28;20042;-68
2022/03/29 03:36:58;;;;;;;47.40;20.48;;;;;;;;;;5003416;28;20389;-67
2022/03/29 03:39:24;;;;;;;45.40;21.05;;;;;;;;;;4999118;28;20076;-69
2022/03/29 03:41:51;;;;;;;50.65;21.25;;;;;;;;;;4995325;28;20136;-69
2022/03/29 03:44:17;;;;;;;41.10;20.42;;;;;;;;;;5000147;28;20160;-69
2022/03/29 03:46:43;;;;;;;48.70;19.48;;;;;;;;;;4998131;28;20027;-68
2022/03/29 03:49:10;;;;;;;45.47;20.67;;;;;;;;;;5005833;28;20379;-68
2022/03/29 03:51:36;;;;;;;54.97;21.65;;;;;;;;;;4998481;28;20033;-69
2022/03/29 03:54:02;;;;;;;43.58;20.80;;;;;;;;;;4997844;28;20030;-68
2022/03/29 03:56:28;;;;;;;49.38;18.40;;;;;;;;;;5000334;28;20041;-68
2022/03/29 03:58:54;;;;;;;50.47;20.70;;;;;;;;;;5005445;28;20034;-69
2022/03/29 04:01:20;;;;;;;96.72;21.05;;;;;;;;;;4997129;28;20023;-68
2022/03/29 04:03:46;;;;;;;129.10;24.48;;;;;;;;;;5014056;28;20045;-68
2022/03/29 04:06:12;;;;;;;62.22;20.50;;;;;;;;;;5001687;28;20026;-68
2022/03/29 04:08:38;;;;;;;47.25;20.30;;;;;;;;;;5005181;28;20897;-69
2022/03/29 04:11:06;;;;;;;76.47;21.27;;;;;;;;;;5002848;28;20030;-69
2022/03/29 04:13:32;;;;;;;159.18;26.02;;;;;;;;;;4996492;28;20110;-69
2022/03/29 04:15:59;;;;;;;55.15;19.65;;;;;;;;;;5001549;28;20042;-68
2022/03/29 04:18:25;;;;;;;113.32;22.10;;;;;;;;;;5013363;28;20049;-69
2022/03/29 04:20:53;;;;;;;39.83;16.50;;;;;;;;;;4998726;28;20030;-70
2022/03/29 04:23:19;;;;;;;31.67;15.13;;;;;;;;;;5002230;28;20084;-68
2022/03/29 04:25:45;;;;;;;44.05;17.58;;;;;;;;;;5003141;28;20026;-69
2022/03/29 04:28:11;;;;;;;52.88;17.55;;;;;;;;;;5006009;28;20060;-69
2022/03/29 04:30:38;;;;;;;68.85;17.35;;;;;;;;;;4994075;28;20708;-69
2022/03/29 04:33:04;;;;;;;41.90;16.27;;;;;;;;;;4995872;28;20445;-68
2022/03/29 04:35:30;;;;;;;42.30;16.55;;;;;;;;;;5001064;28;20030;-68
2022/03/29 04:37:56;;;;;;;35.10;15.80;;;;;;;;;;5000173;28;20030;-69
2022/03/29 04:40:23;;;;;;;37.22;16.73;;;;;;;;;;5000823;28;20096;-69
2022/03/29 04:42:50;;;;;;;42.97;17.80;;;;;;;;;;5001804;28;20100;-68
2022/03/29 04:45:17;;;;;;;57.58;17.42;;;;;;;;;;4993081;28;20045;-67
2022/03/29 04:47:43;;;;;;;74.82;19.35;;;;;;;;;;5002708;28;20618;-68
2022/03/29 04:50:10;;;;;;;85.55;19.13;;;;;;;;;;4998214;28;20040;-68
2022/03/29 04:52:39;;;;;;;46.47;17.45;;;;;;;;;;4997476;28;20105;-67
2022/03/29 04:55:06;;;;;;;48.80;16.58;;;;;;;;;;5002368;28;20026;-69
2022/03/29 04:57:32;;;;;;;56.95;19.70;;;;;;;;;;5002595;28;20113;-69
2022/03/29 04:59:58;;;;;;;61.55;18.45;;;;;;;;;;5000718;28;20061;-68
2022/03/29 05:02:24;;;;;;;48.83;15.65;;;;;;;;;;5001225;28;20104;-68
2022/03/29 05:04:51;;;;;;;48.50;18.40;;;;;;;;;;5007267;28;20323;-68
2022/03/29 05:07:17;;;;;;;37.40;16.83;;;;;;;;;;5010871;28;20037;-67
2022/03/29 05:09:43;;;;;;;32.60;16.30;;;;;;;;;;5004061;28;20544;-67
2022/03/29 05:12:09;;;;;;;32.25;16.05;;;;;;;;;;4997787;28;20029;-70
2022/03/29 05:14:36;;;;;;;70.93;18.67;;;;;;;;;;5002077;28;20034;-69
2022/03/29 05:17:02;;;;;;;39.05;17.05;;;;;;;;;;5003602;28;20391;-68
2022/03/29 05:19:28;;;;;;;39.03;16.27;;;;;;;;;;5004711;28;20479;-69
2022/03/29 05:21:55;;;;;;;36.08;15.77;;;;;;;;;;5002061;28;20030;-69
2022/03/29 05:24:21;;;;;;;33.85;17.83;;;;;;;;;;4999400;28;20026;-69
2022/03/29 05:26:47;;;;;;;66.47;19.25;;;;;;;;;;4994965;28;20022;-68
2022/03/29 05:29:13;;;;;;;31.50;16.00;;;;;;;;;;4999321;28;20113;-68
2022/03/29 05:31:39;;;;;;;34.08;15.50;;;;;;;;;;4996896;28;20041;-70
2022/03/29 05:34:05;;;;;;;32.78;17.33;;;;;;;;;;5001814;28;20079;-68
2022/03/29 05:36:32;;;;;;;28.42;14.10;;;;;;;;;;5000273;28;20408;-69
2022/03/29 05:38:58;;;;;;;24.02;13.82;;;;;;;;;;5003235;28;20030;-68
2022/03/29 05:41:24;;;;;;;25.02;13.30;;;;;;;;;;5001328;28;20034;-69
2022/03/29 05:43:50;;;;;;;24.17;13.98;;;;;;;;;;5001130;28;20088;-69
2022/03/29 05:49:02;;;;;;;20.38;11.48;;;;;;;;;;4999437;28;20644;-69
2022/03/29 05:51:29;;;;;;;19.92;12.32;;;;;;;;;;5001707;28;20064;-68
2022/03/29 05:53:57;;;;;;;20.38;10.80;;;;;;;;;;5002845;28;20057;-69
2022/03/29 05:56:23;;;;;;;24.05;12.95;;;;;;;;;;4999150;28;20046;-70
2022/03/29 05:58:50;;;;;;;37.97;13.13;;;;;;;;;;5001440;28;20080;-69
2022/03/29 06:01:16;;;;;;;59.95;16.17;;;;;;;;;;5000973;28;20025;-69
2022/03/29 06:03:42;;;;;;;26.85;12.43;;;;;;;;;;5006133;28;20026;-69
2022/03/29 06:06:09;;;;;;;32.28;11.90;;;;;;;;;;4997205;28;20480;-70
2022/03/29 06:08:35;;;;;;;24.85;12.40;;;;;;;;;;5004019;28;21531;-70
2022/03/29 06:11:02;;;;;;;18.80;10.63;;;;;;;;;;5002571;28;20029;-69
2022/03/29 06:13:28;;;;;;;22.58;11.27;;;;;;;;;;4995854;28;20117;-70
2022/03/29 06:15:54;;;;;;;36.92;13.15;;;;;;;;;;4999216;28;20192;-69
2022/03/29 06:18:20;;;;;;;19.60;10.88;;;;;;;;;;4993870;28;20037;-70
2022/03/29 06:20:47;;;;;;;24.48;9.85;;;;;;;;;;5003847;28;20034;-69
2022/03/29 06:23:13;;;;;;;22.67;10.10;;;;;;;;;;5000415;28;20031;-69
2022/03/29 06:25:39;;;;;;;24.55;10.25;;;;;;;;;;4992728;28;20050;-68
2022/03/29 06:28:06;;;;;;;28.02;12.73;;;;;;;;;;5002334;28;20026;-69
2022/03/29 06:30:32;;;;;;;26.52;10.32;;;;;;;;;;5005552;28;20021;-70
2022/03/29 06:32:59;;;;;;;32.72;10.75;;;;;;;;;;5011435;28;20033;-69
2022/03/29 06:35:31;;;;;;;21.20;9.88;;;;;;;;;;5009121;28;20033;-69
2022/03/29 06:37:58;;;;;;;37.05;11.32;;;;;;;;;;5008637;28;20756;-69
2022/03/29 06:40:25;;;;;;;33.88;12.27;;;;;;;;;;5011231;28;20084;-67
2022/03/29 06:42:51;;;;;;;50.72;13.20;;;;;;;;;;5011259;28;20028;-69
2022/03/29 06:45:17;;;;;;;37.03;11.32;;;;;;;;;;5011030;28;20030;-68
2022/03/29 06:47:44;;;;;;;23.98;10.40;;;;;;;;;;5006050;28;20500;-68
2022/03/29 06:50:11;;;;;;;23.02;9.93;;;;;;;;;;5009263;28;20246;-68
2022/03/29 06:52:38;;;;;;;20.48;10.07;;;;;;;;;;5010295;28;20121;-68
2022/03/29 06:55:05;;;;;;;55.15;12.73;;;;;;;;;;5006918;28;20026;-67
2022/03/29 06:57:31;;;;;;;25.65;11.75;;;;;;;;;;5007515;28;20030;-68
2022/03/29 06:59:57;;;;;;;26.02;11.02;;;;;;;;;;5010469;28;20498;-69
2022/03/29 07:02:24;;;;;;;24.98;10.85;;;;;;;;;;5011131;28;20033;-69
2022/03/29 07:04:50;;;;;;;33.47;10.30;;;;;;;;;;5010120;28;20488;-68
2022/03/29 07:07:16;;;;;;;44.30;12.82;;;;;;;;;;5010903;28;20034;-68
2022/03/29 07:12:30;;;;;;;30.83;10.70;;;;;;;;;;5008411;28;20529;-70
2022/03/29 07:14:57;;;;;;;116.20;15.25;;;;;;;;;;5005716;28;20263;-69
2022/03/29 07:17:23;;;;;;;48.00;11.63;;;;;;;;;;5000249;28;20514;-69
2022/03/29 07:19:49;;;;;;;28.38;11.38;;;;;;;;;;5008559;28;20554;-70
2022/03/29 07:22:16;;;;;;;21.92;10.50;;;;;;;;;;5007022;28;20022;-69
2022/03/29 07:24:43;;;;;;;24.00;11.48;;;;;;;;;;5009247;28;20030;-68
2022/03/29 07:27:09;;;;;;;23.17;11.85;;;;;;;;;;5003513;28;20354;-68
2022/03/29 07:29:36;;;;;;;27.15;11.27;;;;;;;;;;5004711;28;20041;-68
2022/03/29 07:32:02;;;;;;;17.38;9.35;;;;;;;;;;5000492;28;20040;-68
2022/03/29 07:34:29;;;;;;;20.67;10.85;;;;;;;;;;5001784;28;20030;-68
2022/03/29 07:36:56;;;;;;;18.63;10.27;;;;;;;;;;5003865;28;20052;-68
2022/03/29 07:39:22;;;;;;;24.77;12.20;;;;;;;;;;4998305;28;20061;-68
2022/03/29 07:41:49;;;;;;;20.67;10.95;;;;;;;;;;4997014;28;20026;-69
2022/03/29 07:44:15;;;;;;;21.50;12.65;;;;;;;;;;5006764;28;20037;-70
2022/03/29 07:46:41;;;;;;;20.90;10.48;;;;;;;;;;5005334;28;20033;-68
2022/03/29 07:49:07;;;;;;;21.25;11.73;;;;;;;;;;5000581;28;20076;-70
2022/03/29 07:51:33;;;;;;;19.02;11.77;;;;;;;;;;4997630;28;20027;-68
2022/03/29 07:53:59;;;;;;;21.85;11.38;;;;;;;;;;4997827;28;20427;-70
2022/03/29 07:56:25;;;;;;;27.80;12.57;;;;;;;;;;5000663;28;20792;-69
2022/03/29 07:58:52;;;;;;;25.75;13.07;;;;;;;;;;5011829;28;20408;-70
2022/03/29 08:01:18;;;;;;;20.77;12.07;;;;;;;;;;5004824;28;20026;-70
2022/03/29 08:03:44;;;;;;;23.23;11.90;;;;;;;;;;5003995;28;20456;-70
2022/03/29 08:06:11;;;;;;;23.67;12.43;;;;;;;;;;5021517;28;20030;-69
2022/03/29 08:08:37;;;;;;;21.42;11.10;;;;;;;;;;5002787;28;20021;-70
2022/03/29 08:11:04;;;;;;;23.33;12.63;;;;;;;;;;5015618;28;20034;-70
2022/03/29 08:13:30;;;;;;;17.75;10.77;;;;;;;;;;4996167;28;20026;-70
2022/03/29 08:15:58;;;;;;;18.55;11.27;;;;;;;;;;5003681;28;20045;-71
2022/03/29 08:18:25;;;;;;;19.23;10.85;;;;;;;;;;5000642;28;20057;-70
2022/03/29 08:20:51;;;;;;;21.15;12.05;;;;;;;;;;4997243;28;20035;-69
2022/03/29 08:23:18;;;;;;;22.60;12.07;;;;;;;;;;5000793;28;20022;-69
2022/03/29 08:25:44;;;;;;;28.58;13.82;;;;;;;;;;5003765;28;20100;-69
2022/03/29 08:28:10;;;;;;;24.13;13.45;;;;;;;;;;5001615;28;20430;-70
2022/03/29 08:30:37;;;;;;;24.33;13.18;;;;;;;;;;4996970;28;20192;-69
2022/03/29 08:33:03;;;;;;;25.75;12.50;;;;;;;;;;5002158;28;20069;-68
2022/03/29 08:35:33;;;;;;;21.35;12.95;;;;;;;;;;5001002;28;20567;-69
2022/03/29 08:37:59;;;;;;;21.02;11.40;;;;;;;;;;5000760;28;20030;-70
2022/03/29 08:40:28;;;;;;;24.85;12.57;;;;;;;;;;5005385;28;20041;-69
2022/03/29 08:42:56;;;;;;;23.05;13.57;;;;;;;;;;4998468;28;20148;-69
2022/03/29 08:45:27;;;;;;;21.38;12.20;;;;;;;;;;4996562;28;20029;-70
2022/03/29 08:47:57;;;;;;;23.75;12.40;;;;;;;;;;5012184;28;20105;-69
2022/03/29 08:50:24;;;;;;;20.88;12.85;;;;;;;;;;4998067;28;20478;-70
2022/03/29 08:52:51;;;;;;;24.13;13.65;;;;;;;;;;4999268;28;20029;-70
2022/03/29 08:55:17;;;;;;;25.73;12.70;;;;;;;;;;5001764;28;20030;-69
2022/03/29 08:57:43;;;;;;;23.88;11.45;;;;;;;;;;4994111;28;20022;-71
2022/03/29 09:00:10;;;;;;;21.45;12.95;;;;;;;;;;5003987;28;20030;-69
2022/03/29 09:02:37;;;;;;;21.63;12.02;;;;;;;;;;5003595;28;20221;-70
2022/03/29 09:05:13;;;;;;;22.88;12.52;;;;;;;;;;5004512;28;20057;-69
2022/03/29 09:07:50;;;;;;;25.38;12.68;;;;;;;;;;4999906;28;20030;-70
2022/03/29 09:10:17;;;;;;;21.33;13.73;;;;;;;;;;4997284;28;20061;-69
2022/03/29 09:12:43;;;;;;;24.20;13.93;;;;;;;;;;4999798;28;20455;-69
2022/03/29 09:15:09;;;;;;;21.05;13.68;;;;;;;;;;4998519;28;20061;-70
2022/03/29 09:17:39;;;;;;;29.80;14.73;;;;;;;;;;5000245;28;20029;-69
2022/03/29 09:20:05;;;;;;;27.73;14.95;;;;;;;;;;4995626;28;20262;-70
2022/03/29 09:22:35;;;;;;;26.33;14.35;;;;;;;;;;4994575;28;20045;-70
2022/03/29 09:25:01;;;;;;;23.92;13.18;;;;;;;;;;4996234;28;20026;-70
2022/03/29 09:27:27;;;;;;;21.95;13.75;;;;;;;;;;4998197;28;20276;-69
2022/03/29 09:30:07;;;;;;;22.85;12.98;;;;;;;;;;4998969;28;20041;-70
2022/03/29 09:32:34;;;;;;;23.30;14.15;;;;;;;;;;5000733;28;20030;-70
2022/03/29 09:35:08;;;;;;;22.38;13.95;;;;;;;;;;4999853;28;20041;-69
2022/03/29 09:37:37;;;;;;;28.83;13.27;;;;;;;;;;5001348;28;20037;-70
2022/03/29 09:40:03;;;;;;;27.17;14.60;;;;;;;;;;5000373;28;20280;-70
2022/03/29 09:42:30;;;;;;;24.70;12.82;;;;;;;;;;4995202;28;20034;-70
2022/03/29 09:44:57;;;;;;;29.85;15.07;;;;;;;;;;5001894;28;20026;-67
2022/03/29 09:47:23;;;;;;;26.17;14.23;;;;;;;;;;4999820;28;20397;-69
2022/03/29 09:49:54;;;;;;;25.60;15.15;;;;;;;;;;5000770;28;20026;-69
2022/03/29 09:52:21;;;;;;;25.73;14.38;;;;;;;;;;4995478;28;20026;-70
2022/03/29 09:55:06;;;;;;;24.13;14.00;;;;;;;;;;5002895;28;20644;-68
2022/03/29 09:57:42;;;;;;;25.88;13.93;;;;;;;;;;5006336;28;20029;-69
2022/03/29 10:00:08;;;;;;;;;;;;;;;;;;5008956;28;20037;-70
2022/03/29 10:02:34;;;;;;;;;;;;;;;;;;5004763;28;19936;-71
2022/03/29 10:05:00;;;;;;;22.85;13.07;;;;;;;;;;5004012;28;20881;-70
2022/03/29 10:07:26;;;;;;;23.48;13.52;;;;;;;;;;5002974;28;20022;-70
2022/03/29 10:09:52;;;;;;;20.90;12.18;;;;;;;;;;5006011;28;20104;-71
2022/03/29 10:12:22;;;;;;;20.90;12.25;;;;;;;;;;5020481;28;20038;-70
2022/03/29 10:14:50;;;;;;;23.25;13.93;;;;;;;;;;5006328;28;20038;-70
2022/03/29 10:17:16;;;;;;;18.63;11.75;;;;;;;;;;5004847;28;20048;-70
2022/03/29 10:19:44;;;;;;;19.63;11.82;;;;;;;;;;5006580;28;20038;-70
2022/03/29 10:22:10;;;;;;;20.77;12.63;;;;;;;;;;5002847;28;20033;-71
2022/03/29 10:24:38;;;;;;;22.33;12.68;;;;;;;;;;5005129;28;20038;-71
2022/03/29 10:27:04;;;;;;;21.85;12.55;;;;;;;;;;5006110;28;20423;-70
2022/03/29 10:29:31;;;;;;;21.98;13.38;;;;;;;;;;5000623;28;20034;-70
2022/03/29 10:31:59;;;;;;;24.25;13.15;;;;;;;;;;5001878;28;20042;-70
2022/03/29 10:34:26;;;;;;;25.38;14.43;;;;;;;;;;5005155;28;20395;-70
2022/03/29 10:37:03;;;;;;;29.92;14.65;;;;;;;;;;5000096;28;20033;-71
2022/03/29 10:39:41;;;;;;;28.02;13.57;;;;;;;;;;5008247;28;20084;-71
2022/03/29 10:42:25;;;;;;;24.38;13.45;;;;;;;;;;5010746;28;20037;-71
2022/03/29 10:45:10;;;;;;;23.45;13.77;;;;;;;;;;5008395;28;20038;-69
2022/03/29 10:47:37;;;;;;;23.15;13.73;;;;;;;;;;5007988;28;20034;-70
2022/03/29 10:50:04;;;;;;;28.60;16.20;;;;;;;;;;5011650;28;20033;-71
2022/03/29 10:52:37;;;;;;;24.80;14.82;;;;;;;;;;5011286;28;20044;-70
2022/03/29 10:55:18;;;;;;;30.33;16.13;;;;;;;;;;5010460;28;20033;-69
2022/03/29 10:58:03;;;;;;;26.60;16.42;;;;;;;;;;5009556;28;20034;-71
2022/03/29 11:00:31;;;;;;;24.85;16.20;;;;;;;;;;5008601;28;20498;-71
2022/03/29 11:03:09;;;;;;;26.35;15.38;;;;;;;;;;5009925;28;20033;-69
2022/03/29 11:05:54;;;;;;;28.75;18.50;;;;;;;;;;5012953;28;20030;-70
2022/03/29 11:08:21;;;;;;;25.90;15.60;;;;;;;;;;5008604;28;20504;-70
2022/03/29 11:10:47;;;;;;;25.17;15.68;;;;;;;;;;5011523;28;20095;-69
2022/03/29 11:13:32;;;;;;;26.73;16.52;;;;;;;;;;5007560;28;20034;-70
2022/03/29 11:16:02;;;;;;;24.97;16.47;;;;;;;;;;5009760;28;20038;-71
2022/03/29 11:18:31;;;;;;;33.08;17.65;;;;;;;;;;5003888;28;20738;-70
2022/03/29 11:21:04;;;;;;;25.85;16.33;;;;;;;;;;5011220;28;20087;-70
2022/03/29 11:23:31;;;;;;;29.02;16.77;;;;;;;;;;5010046;28;20115;-71
2022/03/29 11:25:58;;;;;;;26.83;15.65;;;;;;;;;;5007058;28;20395;-71
2022/03/29 11:28:24;;;;;;;26.35;16.42;;;;;;;;;;5005844;28;20034;-71
2022/03/29 11:30:56;;;;;;;25.48;16.50;;;;;;;;;;5007982;28;20468;-71
2022/03/29 11:33:32;;;;;;;25.92;16.73;;;;;;;;;;5010113;28;20164;-71
2022/03/29 11:35:58;;;;;;;25.60;16.05;;;;;;;;;;5003074;28;20405;-70
2022/03/29 11:38:25;;;;;;;27.70;15.88;;;;;;;;;;5010726;28;20026;-70
2022/03/29 11:40:51;;;;;;;25.10;14.80;;;;;;;;;;5009300;28;20097;-70
2022/03/29 11:43:22;;;;;;;29.70;16.15;;;;;;;;;;5009700;28;20037;-70
2022/03/29 11:45:48;;;;;;;24.15;15.77;;;;;;;;;;5006616;28;20022;-70
2022/03/29 11:48:18;;;;;;;22.77;13.50;;;;;;;;;;5008528;28;20559;-70
2022/03/29 11:50:52;;;;;;;23.35;13.63;;;;;;;;;;5003911;28;20034;-69
2022/03/29 11:53:27;;;;;;;23.75;14.90;;;;;;;;;;5004820;28;20113;-70
2022/03/29 11:55:54;;;;;;;21.45;13.45;;;;;;;;;;5009087;28;20455;-71
2022/03/29 11:58:21;;;;;;;20.58;13.20;;;;;;;;;;5006736;28;20131;-71
2022/03/29 12:00:48;;;;;;;22.83;14.07;;;;;;;;;;5003014;28;20029;-71
2022/03/29 12:03:14;;;;;;;26.00;15.95;;;;;;;;;;5007744;28;20030;-71
2022/03/29 12:05:40;;;;;;;25.02;15.55;;;;;;;;;;5008600;28;20022;-70
2022/03/29 12:08:06;;;;;;;28.63;17.75;;;;;;;;;;5009625;28;20022;-71
2022/03/29 12:10:34;;;;;;;24.40;16.25;;;;;;;;;;5009634;28;20034;-71
2022/03/29 12:13:01;;;;;;;28.02;16.55;;;;;;;;;;5008741;28;20025;-71
2022/03/29 12:15:27;;;;;;;27.08;16.80;;;;;;;;;;5010610;28;20045;-71
2022/03/29 12:20:43;;;;;;;32.92;19.40;;;;;;;;;;5009257;28;20190;-71
2022/03/29 12:23:26;;;;;;;33.63;20.13;;;;;;;;;;5011080;28;20080;-71
2022/03/29 12:25:52;;;;;;;36.03;21.75;;;;;;;;;;5008181;28;20022;-72
2022/03/29 12:28:19;;;;;;;39.85;24.80;;;;;;;;;;5007997;28;20029;-71
2022/03/29 12:30:46;;;;;;;36.20;22.25;;;;;;;;;;5010664;28;20030;-71
2022/03/29 12:33:13;;;;;;;40.83;23.38;;;;;;;;;;5014564;28;20041;-70
2022/03/29 12:35:39;;;;;;;38.83;20.45;;;;;;;;;;5000179;28;20026;-71
2022/03/29 12:38:06;;;;;;;31.65;19.52;;;;;;;;;;5013319;28;20057;-71
2022/03/29 12:40:32;;;;;;;37.67;21.08;;;;;;;;;;5009617;28;20030;-71
2022/03/29 12:43:03;;;;;;;34.40;20.60;;;;;;;;;;5008557;28;20084;-71
2022/03/29 12:45:29;;;;;;;34.03;20.52;;;;;;;;;;5005643;28;20057;-71
2022/03/29 12:47:55;;;;;;;33.00;19.95;;;;;;;;;;5009110;28;20364;-72
2022/03/29 12:50:22;;;;;;;32.50;19.38;;;;;;;;;;5009476;28;20034;-71
2022/03/29 12:52:48;;;;;;;26.48;17.80;;;;;;;;;;5008397;28;20068;-71
2022/03/29 12:55:18;;;;;;;26.73;16.30;;;;;;;;;;5006885;28;20025;-71
2022/03/29 12:57:48;;;;;;;24.30;16.42;;;;;;;;;;5004342;28;20088;-72
2022/03/29 13:00:16;;;;;;;25.02;15.90;;;;;;;;;;5008209;28;20025;-71
2022/03/29 13:02:43;;;;;;;23.88;15.73;;;;;;;;;;5009231;28;20108;-71
2022/03/29 13:05:10;;;;;;;29.02;16.80;;;;;;;;;;5008799;28;20026;-71
2022/03/29 13:07:59;;;;;;;24.13;15.95;;;;;;;;;;5007966;28;20041;-71
2022/03/29 13:10:26;;;;;;;24.30;15.68;;;;;;;;;;5009714;28;20109;-71
2022/03/29 13:12:59;;;;;;;24.90;15.68;;;;;;;;;;5007229;28;20088;-71
2022/03/29 13:15:43;;;;;;;25.25;14.98;;;;;;;;;;5002906;28;20048;-72
2022/03/29 13:18:23;;;;;;;22.90;14.80;;;;;;;;;;5009139;28;20509;-72
2022/03/29 13:20:50;;;;;;;24.00;15.63;;;;;;;;;;5006389;28;20064;-72
2022/03/29 13:23:29;;;;;;;25.33;16.48;;;;;;;;;;5007074;28;20021;-72
2022/03/29 13:25:55;;;;;;;28.02;17.90;;;;;;;;;;5006213;28;20546;-72
2022/03/29 13:28:21;;;;;;;25.40;18.38;;;;;;;;;;5005609;28;20030;-71
2022/03/29 13:30:48;;;;;;;24.63;17.65;;;;;;;;;;5004675;28;20530;-72
2022/03/29 13:33:14;;;;;;;24.95;17.10;;;;;;;;;;5004006;28;20034;-72
2022/03/29 13:35:46;;;;;;;25.92;17.17;;;;;;;;;;5001943;28;20026;-72
2022/03/29 13:38:13;;;;;;;27.55;17.42;;;;;;;;;;5008194;28;20030;-71
2022/03/29 13:40:39;;;;;;;27.05;18.30;;;;;;;;;;5006752;28;20034;-71
2022/03/29 13:43:06;;;;;;;25.88;19.52;;;;;;;;;;5007164;28;20029;-72
2022/03/29 13:45:32;;;;;;;25.85;18.00;;;;;;;;;;5005669;28;20022;-71
2022/03/29 13:47:58;;;;;;;31.88;18.23;;;;;;;;;;5005116;28;20025;-72
2022/03/29 13:50:25;;;;;;;25.63;18.60;;;;;;;;;;5005773;28;20408;-71
2022/03/29 13:52:51;;;;;;;25.25;18.48;;;;;;;;;;5008523;28;20044;-72
2022/03/29 13:55:17;;;;;;;27.25;19.40;;;;;;;;;;5005456;28;20038;-71
2022/03/29 13:57:44;;;;;;;29.05;20.15;;;;;;;;;;5006406;28;20045;-72
2022/03/29 14:00:12;;;;;;;25.60;18.70;;;;;;;;;;5003824;28;20484;-72
2022/03/29 14:02:38;;;;;;;25.92;18.90;;;;;;;;;;5008321;28;20022;-71
2022/03/29 14:05:04;;;;;;;27.70;19.55;;;;;;;;;;5003529;28;20161;-72
2022/03/29 14:07:31;;;;;;;29.40;19.35;;;;;;;;;;5007316;28;20058;-71
2022/03/29 14:09:57;;;;;;;31.38;19.13;;;;;;;;;;5002257;28;20466;-71
2022/03/29 14:12:23;;;;;;;31.08;19.30;;;;;;;;;;5008027;28;20045;-72
2022/03/29 14:14:50;;;;;;;28.35;18.42;;;;;;;;;;5005863;28;20546;-71
2022/03/29 14:17:17;;;;;;;26.38;19.60;;;;;;;;;;5006869;28;20131;-72
2022/03/29 14:19:45;;;;;;;27.90;19.27;;;;;;;;;;5005329;28;20054;-72
2022/03/29 14:22:14;;;;;;;31.13;21.05;;;;;;;;;;5001187;28;20489;-72
2022/03/29 14:24:40;;;;;;;28.42;21.02;;;;;;;;;;5003368;28;20036;-72
2022/03/29 14:27:07;;;;;;;29.25;21.65;;;;;;;;;;5003792;28;20034;-72
2022/03/29 14:29:33;;;;;;;30.40;20.17;;;;;;;;;;5005629;28;20057;-72